Aviation Digital Data Service (ADDS)

Output produced by METARs form (0209 UTC 11 December 2016)
found at http://aviationweather.gov/adds/metars/
 
KGSO 102339Z 1100/1124 VRB03KT P6SM FEW150 SCT250 
     FM111700 17007KT P6SM SCT040 BKN250 
     FM112100 16007KT P6SM BKN025 OVC035